Terminal Aerodrome Forecast
Issued by NWS

Home | Current Version | Previous Version | Text Only | Print | Product List | Glossary On
Versions: 1 2 3 4 5 6 7 8 9 10 11 12 13 14 15 16 17 18 19 20 21
324
FTUS41 KCAR 240534
TAFFVE
TAF
KFVE 240534Z 2406/2506 26008KT P6SM BKN200
     FM241200 20006KT P6SM OVC050
     FM241500 19010G18KT P6SM VCSH OVC025
     FM241800 20010G18KT 3SM -SN BR OVC015
     FM250300 27008KT P6SM BKN015 OVC025=

USA.gov is the U.S. government's official web portal to all federal, state and local government web resources and services.